createdAt,value
2018-04-27T00:00:11.389Z,7.35
2018-04-27T00:01:11.413Z,7.43
2018-04-27T00:02:11.421Z,7.42
2018-04-27T00:03:11.442Z,7.47
2018-04-27T00:04:11.448Z,7.56
2018-04-27T00:05:11.531Z,7.47
2018-04-27T00:06:11.507Z,7.50
2018-04-27T00:07:11.499Z,7.50
2018-04-27T00:08:11.620Z,7.35
2018-04-27T00:09:11.537Z,7.33
2018-04-27T00:10:11.545Z,7.36
2018-04-27T00:11:11.583Z,7.36
2018-04-27T00:12:11.651Z,7.43
2018-04-27T00:13:11.611Z,7.47
2018-04-27T00:14:11.656Z,7.50
2018-04-27T00:15:11.631Z,7.54
2018-04-27T00:16:11.724Z,7.51
2018-04-27T00:17:11.800Z,7.54
2018-04-27T00:18:11.675Z,7.58
2018-04-27T00:19:11.719Z,7.50
2018-04-27T00:20:11.705Z,7.53
2018-04-27T00:21:11.857Z,7.36
2018-04-27T00:22:11.837Z,7.29
2018-04-27T00:23:11.754Z,7.33
2018-04-27T00:24:11.787Z,7.13
2018-04-27T00:25:11.789Z,7.15
2018-04-27T00:26:11.825Z,7.18
2018-04-27T00:27:11.825Z,7.17
2018-04-27T00:28:11.851Z,7.29
2018-04-27T00:29:11.852Z,7.32
2018-04-27T00:30:11.871Z,7.31
2018-04-27T00:31:11.903Z,7.39
2018-04-27T00:32:11.922Z,7.32
2018-04-27T00:33:11.977Z,7.17
2018-04-27T00:34:11.937Z,7.15
2018-04-27T00:35:11.957Z,6.97
2018-04-27T00:36:11.981Z,6.89
2018-04-27T00:37:12.073Z,6.81
2018-04-27T00:38:12.054Z,6.75
2018-04-27T00:39:12.017Z,6.79
2018-04-27T00:40:12.026Z,6.66
2018-04-27T00:41:12.042Z,6.52
2018-04-27T00:42:12.061Z,6.30
2018-04-27T00:43:12.088Z,6.44
2018-04-27T00:44:12.093Z,6.48
2018-04-27T00:45:12.104Z,6.77
2018-04-27T00:46:12.135Z,6.82
2018-04-27T00:47:12.135Z,6.70
2018-04-27T00:48:12.163Z,6.72
2018-04-27T00:49:12.267Z,6.78
2018-04-27T00:50:12.183Z,6.75
2018-04-27T00:51:12.220Z,6.64
2018-04-27T00:52:12.274Z,6.57
2018-04-27T00:53:12.290Z,6.70
2018-04-27T00:54:12.246Z,6.79
2018-04-27T00:55:12.263Z,6.78
2018-04-27T00:56:12.279Z,6.85
2018-04-27T00:57:12.342Z,6.81
2018-04-27T00:58:12.309Z,6.79
2018-04-27T00:59:12.320Z,6.78
2018-04-27T01:00:12.394Z,6.85
2018-04-27T01:01:12.447Z,6.78
2018-04-27T01:02:12.374Z,6.93
2018-04-27T01:03:12.476Z,6.79
2018-04-27T01:04:12.413Z,6.84
2018-04-27T01:05:12.432Z,6.85
2018-04-27T01:06:12.444Z,6.93
2018-04-27T01:07:12.489Z,6.92
2018-04-27T01:08:12.478Z,6.89
2018-04-27T01:09:12.481Z,6.96
2018-04-27T01:10:12.570Z,6.79
2018-04-27T01:11:12.518Z,6.77
2018-04-27T01:12:12.650Z,6.62
2018-04-27T01:13:12.546Z,6.56
2018-04-27T01:14:12.572Z,6.59
2018-04-27T01:15:12.605Z,6.66
2018-04-27T01:16:12.601Z,6.42
2018-04-27T01:17:12.613Z,6.46
2018-04-27T01:18:12.636Z,6.70
2018-04-27T01:19:12.645Z,6.67
2018-04-27T01:20:12.654Z,6.57
2018-04-27T01:21:12.671Z,6.64
2018-04-27T01:22:12.707Z,6.56
2018-04-27T01:23:12.721Z,6.62
2018-04-27T01:24:12.729Z,6.39
2018-04-27T01:25:12.733Z,6.31
2018-04-27T01:26:12.750Z,6.31
2018-04-27T01:27:12.760Z,6.46
2018-04-27T01:28:12.790Z,6.54
2018-04-27T01:29:12.837Z,6.45
2018-04-27T01:30:12.815Z,6.27
2018-04-27T01:31:12.827Z,6.28
2018-04-27T01:32:12.847Z,6.27
2018-04-27T01:33:12.869Z,6.24
2018-04-27T01:34:12.878Z,6.17
2018-04-27T01:35:12.962Z,6.19
2018-04-27T01:36:12.919Z,6.28
2018-04-27T01:37:12.938Z,6.38
2018-04-27T01:38:12.937Z,6.36
2018-04-27T01:39:12.955Z,6.22
2018-04-27T01:40:12.976Z,5.98
2018-04-27T01:41:12.991Z,6.04
2018-04-27T01:42:13.091Z,6.07
2018-04-27T01:43:13.103Z,6.16
2018-04-27T01:44:13.094Z,5.82
2018-04-27T01:45:13.056Z,5.72
2018-04-27T01:46:13.059Z,5.71
2018-04-27T01:47:13.076Z,5.68
2018-04-27T01:48:13.103Z,5.71
2018-04-27T01:49:13.119Z,5.59
2018-04-27T01:50:13.120Z,5.43
2018-04-27T01:51:13.138Z,5.62
2018-04-27T01:52:13.164Z,5.86
2018-04-27T01:53:13.237Z,5.48
2018-04-27T01:54:13.220Z,5.48
2018-04-27T01:55:13.209Z,5.59
2018-04-27T01:56:13.277Z,5.59
2018-04-27T01:57:13.254Z,5.50
2018-04-27T01:58:13.285Z,5.68
2018-04-27T01:59:13.272Z,5.71
2018-04-27T02:00:13.283Z,5.65
2018-04-27T02:01:13.293Z,5.76
2018-04-27T02:02:13.326Z,5.87
2018-04-27T02:03:13.322Z,5.93
2018-04-27T02:04:13.431Z,5.87
2018-04-27T02:05:13.362Z,5.97
2018-04-27T02:06:13.380Z,5.98
2018-04-27T02:07:13.395Z,5.99
2018-04-27T02:08:13.404Z,5.79
2018-04-27T02:09:13.422Z,5.84
2018-04-27T02:10:13.433Z,5.87
2018-04-27T02:11:13.477Z,5.69
2018-04-27T02:12:13.490Z,5.73
2018-04-27T02:13:13.514Z,5.71
2018-04-27T02:14:13.496Z,5.61
2018-04-27T02:15:13.533Z,5.61
2018-04-27T02:16:13.528Z,5.54
2018-04-27T02:17:13.567Z,5.50
2018-04-27T02:18:13.622Z,5.75
2018-04-27T02:19:13.577Z,5.80
2018-04-27T02:20:13.591Z,5.54
2018-04-27T02:21:13.627Z,5.65
2018-04-27T02:22:13.626Z,5.64
2018-04-27T02:23:13.722Z,5.57
2018-04-27T02:24:13.651Z,5.66
2018-04-27T02:25:13.814Z,5.62
2018-04-27T02:26:13.694Z,5.68
2018-04-27T02:27:13.701Z,5.61
2018-04-27T02:28:13.746Z,5.80
2018-04-27T02:29:13.843Z,5.79
2018-04-27T02:30:13.752Z,5.87
2018-04-27T02:31:13.755Z,5.90
2018-04-27T02:32:13.775Z,5.89
2018-04-27T02:33:13.800Z,5.97
2018-04-27T02:34:13.846Z,5.79
2018-04-27T02:35:13.816Z,5.99
2018-04-27T02:36:13.841Z,6.07
2018-04-27T02:37:13.868Z,6.04
2018-04-27T02:38:13.875Z,6.02
2018-04-27T02:39:13.891Z,6.04
2018-04-27T02:40:13.897Z,6.08
2018-04-27T02:41:13.923Z,6.11
2018-04-27T02:42:13.928Z,6.35
2018-04-27T02:43:13.949Z,6.27
2018-04-27T02:44:13.963Z,6.30
2018-04-27T02:45:14.020Z,6.26
2018-04-27T02:46:13.988Z,6.33
2018-04-27T02:47:14.069Z,6.33
2018-04-27T02:48:14.070Z,6.28
2018-04-27T02:49:14.073Z,6.02
2018-04-27T02:50:14.069Z,5.87
2018-04-27T02:51:14.094Z,5.90
2018-04-27T02:52:14.086Z,5.84
2018-04-27T02:53:14.102Z,5.89
2018-04-27T02:54:14.153Z,5.98
2018-04-27T02:55:14.126Z,6.07
2018-04-27T02:56:14.145Z,5.83
2018-04-27T02:57:14.164Z,5.71
2018-04-27T02:58:14.177Z,5.65
2018-04-27T02:59:14.197Z,5.44
2018-04-27T03:00:14.217Z,5.26
2018-04-27T03:01:14.264Z,5.30
2018-04-27T03:02:14.263Z,5.23
2018-04-27T03:03:14.259Z,5.12
2018-04-27T03:04:14.273Z,5.05
2018-04-27T03:05:14.316Z,5.17
2018-04-27T03:06:14.308Z,5.25
2018-04-27T03:07:14.307Z,5.36
2018-04-27T03:08:14.389Z,5.53
2018-04-27T03:09:14.344Z,5.44
2018-04-27T03:10:14.357Z,5.41
2018-04-27T03:11:14.376Z,5.25
2018-04-27T03:12:14.397Z,5.23
2018-04-27T03:13:14.400Z,5.00
2018-04-27T03:14:14.416Z,4.86
2018-04-27T03:15:14.431Z,4.78
2018-04-27T03:16:14.589Z,5.12
2018-04-27T03:17:14.470Z,5.08
2018-04-27T03:18:14.515Z,4.96
2018-04-27T03:19:14.579Z,4.84
2018-04-27T03:20:14.575Z,4.77
2018-04-27T03:21:14.580Z,4.87
2018-04-27T03:22:14.540Z,4.90
2018-04-27T03:23:14.687Z,5.15
2018-04-27T03:24:14.573Z,5.17
2018-04-27T03:25:14.590Z,5.38
2018-04-27T03:26:14.619Z,5.35
2018-04-27T03:27:14.619Z,5.39
2018-04-27T03:28:14.637Z,5.48
2018-04-27T03:29:14.653Z,5.54
2018-04-27T03:30:14.666Z,5.61
2018-04-27T03:31:14.752Z,5.69
2018-04-27T03:32:14.689Z,5.69
2018-04-27T03:33:14.730Z,5.43
2018-04-27T03:34:14.776Z,5.46
2018-04-27T03:35:14.734Z,5.38
2018-04-27T03:36:14.753Z,5.36
2018-04-27T03:37:14.832Z,5.32
2018-04-27T03:38:14.787Z,5.47
2018-04-27T03:39:14.797Z,5.66
2018-04-27T03:40:14.910Z,5.66
2018-04-27T03:41:14.870Z,5.83
2018-04-27T03:42:14.845Z,5.86
2018-04-27T03:43:14.860Z,5.83
2018-04-27T03:44:14.883Z,5.86
2018-04-27T03:45:14.885Z,5.91
2018-04-27T03:46:14.921Z,5.98
2018-04-27T03:47:14.927Z,5.98
2018-04-27T03:48:14.940Z,5.97
2018-04-27T03:49:14.943Z,5.90
2018-04-27T03:50:14.959Z,5.94
2018-04-27T03:51:15.008Z,5.68
2018-04-27T03:52:15.005Z,5.89
2018-04-27T03:53:15.039Z,5.69
2018-04-27T03:54:15.030Z,5.56
2018-04-27T03:55:15.054Z,5.48
2018-04-27T03:56:15.058Z,5.68
2018-04-27T03:57:15.084Z,5.82
2018-04-27T03:58:15.083Z,5.86
2018-04-27T03:59:15.122Z,5.90
2018-04-27T04:00:15.132Z,5.97
2018-04-27T04:01:15.171Z,6.01
2018-04-27T04:02:15.152Z,6.14
2018-04-27T04:03:15.173Z,6.20
2018-04-27T04:04:15.174Z,6.14
2018-04-27T04:05:15.232Z,5.73
2018-04-27T04:06:15.207Z,5.93
2018-04-27T04:07:15.230Z,6.07
2018-04-27T04:08:15.256Z,6.09
2018-04-27T04:09:15.349Z,6.19
2018-04-27T04:10:15.272Z,6.27
2018-04-27T04:11:15.295Z,6.38
2018-04-27T04:12:15.319Z,6.36
2018-04-27T04:13:15.340Z,6.45
2018-04-27T04:14:15.376Z,6.51
2018-04-27T04:15:15.344Z,6.30
2018-04-27T04:16:15.414Z,6.09
2018-04-27T04:17:15.380Z,6.17
2018-04-27T04:18:15.400Z,6.30
2018-04-27T04:19:15.497Z,6.41
2018-04-27T04:20:15.422Z,6.46
2018-04-27T04:21:15.446Z,6.38
2018-04-27T04:22:15.460Z,6.49
2018-04-27T04:23:15.479Z,6.60
2018-04-27T04:24:15.515Z,6.64
2018-04-27T04:25:15.525Z,6.56
2018-04-27T04:26:15.574Z,6.63
2018-04-27T04:27:15.548Z,6.41
2018-04-27T04:28:15.590Z,6.52
2018-04-27T04:29:15.580Z,6.41
2018-04-27T04:30:15.616Z,6.28
2018-04-27T04:31:15.593Z,6.24
2018-04-27T04:32:15.624Z,6.49
2018-04-27T04:33:15.661Z,6.56
2018-04-27T04:34:15.668Z,6.57
2018-04-27T04:35:15.657Z,6.48
2018-04-27T04:36:15.677Z,6.60
2018-04-27T04:37:15.703Z,6.63
2018-04-27T04:38:15.718Z,6.42
2018-04-27T04:39:15.760Z,6.54
2018-04-27T04:40:15.735Z,6.63
2018-04-27T04:41:15.770Z,6.72
2018-04-27T04:42:15.785Z,6.81
2018-04-27T04:43:15.843Z,6.81
2018-04-27T04:44:15.814Z,6.92
2018-04-27T04:45:15.812Z,6.81
2018-04-27T04:46:15.837Z,6.81
2018-04-27T04:47:15.857Z,6.96
2018-04-27T04:48:15.860Z,7.17
2018-04-27T04:49:15.875Z,7.00
2018-04-27T04:50:15.907Z,6.88
2018-04-27T04:51:15.908Z,7.17
2018-04-27T04:52:15.923Z,6.88
2018-04-27T04:53:15.990Z,6.78
2018-04-27T04:54:15.989Z,7.07
2018-04-27T04:55:16.076Z,6.92
2018-04-27T04:56:15.997Z,6.92
2018-04-27T04:57:16.004Z,7.35
2018-04-27T04:58:16.092Z,7.47
2018-04-27T04:59:16.039Z,7.60
2018-04-27T05:00:16.053Z,7.83
2018-04-27T05:01:16.067Z,7.87
2018-04-27T05:02:16.088Z,8.01
2018-04-27T05:03:16.099Z,8.19
2018-04-27T05:04:16.114Z,8.44
2018-04-27T05:05:16.127Z,8.51
2018-04-27T05:06:16.370Z,8.67
2018-04-27T05:07:16.215Z,8.76
2018-04-27T05:08:16.182Z,9.04
2018-04-27T05:09:16.219Z,9.32
2018-04-27T05:10:16.296Z,9.55
2018-04-27T05:11:16.230Z,9.86
2018-04-27T05:12:16.251Z,10.02
2018-04-27T05:13:16.272Z,10.51
2018-04-27T05:14:16.385Z,10.72
2018-04-27T05:15:16.322Z,10.87
2018-04-27T05:16:16.313Z,11.08
2018-04-27T05:17:16.410Z,11.29
2018-04-27T05:18:16.507Z,11.59
2018-04-27T05:19:16.433Z,11.84
2018-04-27T05:20:16.454Z,11.83
2018-04-27T05:21:16.459Z,12.12
2018-04-27T05:22:16.434Z,12.13
2018-04-27T05:23:16.472Z,12.22
2018-04-27T05:24:16.575Z,12.37
2018-04-27T05:25:16.476Z,12.07
2018-04-27T05:26:16.578Z,12.17
2018-04-27T05:27:16.520Z,12.18
2018-04-27T05:28:16.614Z,12.17
2018-04-27T05:29:16.584Z,12.32
2018-04-27T05:30:16.575Z,12.29
2018-04-27T05:31:16.589Z,12.97
2018-04-27T05:32:16.619Z,13.30
2018-04-27T05:33:16.761Z,13.74
2018-04-27T05:34:16.649Z,14.33
2018-04-27T05:35:16.663Z,14.66
2018-04-27T05:36:16.855Z,15.44
2018-04-27T05:37:16.811Z,15.80
2018-04-27T05:38:16.753Z,16.10
2018-04-27T05:39:16.750Z,16.28
2018-04-27T05:40:16.915Z,16.56
2018-04-27T05:41:16.789Z,17.01
2018-04-27T05:42:16.861Z,17.02
2018-04-27T05:43:16.831Z,17.48
2018-04-27T05:44:16.932Z,17.98
2018-04-27T05:45:17.052Z,18.03
2018-04-27T05:46:16.922Z,18.43
2018-04-27T05:47:16.920Z,18.77
2018-04-27T05:48:17.090Z,19.21
2018-04-27T05:49:16.980Z,19.16
2018-04-27T05:50:16.980Z,19.27
2018-04-27T05:51:17.013Z,19.63
2018-04-27T05:52:17.022Z,19.86
2018-04-27T05:53:17.046Z,19.88
2018-04-27T05:54:17.077Z,20.29
2018-04-27T05:55:17.169Z,20.21
2018-04-27T05:56:17.146Z,20.70
2018-04-27T05:57:17.144Z,20.85
2018-04-27T05:58:17.176Z,20.99
2018-04-27T05:59:17.199Z,20.77
2018-04-27T06:00:17.255Z,21.00
2018-04-27T06:01:17.240Z,21.02
2018-04-27T06:02:17.320Z,21.21
2018-04-27T06:03:17.292Z,21.69
2018-04-27T06:04:17.315Z,22.13
2018-04-27T06:05:17.434Z,21.60
2018-04-27T06:06:17.358Z,22.30
2018-04-27T06:07:17.383Z,22.87
2018-04-27T06:08:17.412Z,20.72
2018-04-27T06:09:17.436Z,19.47
2018-04-27T06:10:17.576Z,20.44
2018-04-27T06:11:17.482Z,19.48
2018-04-27T06:12:17.505Z,18.16
2018-04-27T06:13:17.529Z,18.77
2018-04-27T06:14:17.557Z,19.49
2018-04-27T06:15:17.621Z,19.47
2018-04-27T06:16:17.603Z,18.16
2018-04-27T06:17:17.665Z,19.45
2018-04-27T06:18:17.691Z,20.21
2018-04-27T06:19:17.747Z,20.29
2018-04-27T06:20:17.712Z,19.95
2018-04-27T06:21:17.786Z,20.22
2018-04-27T06:22:17.772Z,20.00
2018-04-27T06:23:17.830Z,18.50
2018-04-27T06:24:17.844Z,18.66
2018-04-27T06:25:17.831Z,18.26
2018-04-27T06:26:17.996Z,17.98
2018-04-27T06:27:17.905Z,18.40
2018-04-27T06:28:17.953Z,18.70
2018-04-27T06:29:17.949Z,19.30
2018-04-27T06:30:17.952Z,19.58
2018-04-27T06:31:18.060Z,19.52
2018-04-27T06:32:18.035Z,19.22
2018-04-27T06:33:18.037Z,19.59
2018-04-27T06:34:18.115Z,20.58
2018-04-27T06:35:18.108Z,21.17
2018-04-27T06:36:18.131Z,21.82
2018-04-27T06:37:18.239Z,21.69
2018-04-27T06:38:18.168Z,21.62
2018-04-27T06:39:18.191Z,22.14
2018-04-27T06:40:18.404Z,23.05
2018-04-27T06:41:18.281Z,23.24
2018-04-27T06:42:18.266Z,21.46
2018-04-27T06:43:18.288Z,21.40
2018-04-27T06:44:18.290Z,21.33
2018-04-27T06:45:18.316Z,21.67
2018-04-27T06:46:18.357Z,21.76
2018-04-27T06:47:18.371Z,22.14
2018-04-27T06:48:18.405Z,22.45
2018-04-27T06:49:18.431Z,22.99
2018-04-27T06:50:18.468Z,23.43
2018-04-27T06:51:18.488Z,23.58
2018-04-27T06:52:18.574Z,22.45
2018-04-27T06:53:18.559Z,22.47
2018-04-27T06:54:18.630Z,22.73
2018-04-27T06:55:18.712Z,23.47
2018-04-27T06:56:18.683Z,23.32
2018-04-27T06:57:18.652Z,23.23
2018-04-27T06:58:18.682Z,23.34
2018-04-27T06:59:18.802Z,23.02
2018-04-27T07:00:18.737Z,23.09
2018-04-27T07:01:18.767Z,21.69
2018-04-27T07:02:18.787Z,22.54
2018-04-27T07:03:18.803Z,23.05
2018-04-27T07:04:18.843Z,24.05
2018-04-27T07:05:18.946Z,23.76
2018-04-27T07:06:18.996Z,23.47
2018-04-27T07:07:18.920Z,22.98
2018-04-27T07:08:18.941Z,23.71
2018-04-27T07:09:18.966Z,23.17
2018-04-27T07:10:18.989Z,23.41
2018-04-27T07:11:19.016Z,23.37
2018-04-27T07:12:19.138Z,23.86
2018-04-27T07:13:19.067Z,24.17
2018-04-27T07:14:19.217Z,23.50
2018-04-27T07:15:19.111Z,24.57
2018-04-27T07:16:19.241Z,25.08
2018-04-27T07:17:19.163Z,24.13
2018-04-27T07:18:19.205Z,23.84
2018-04-27T07:19:19.338Z,22.10
2018-04-27T07:20:19.271Z,21.61
2018-04-27T07:21:19.535Z,23.36
2018-04-27T07:22:19.393Z,23.73
2018-04-27T07:23:19.345Z,24.03
2018-04-27T07:24:19.367Z,25.35
2018-04-27T07:25:19.406Z,23.44
2018-04-27T07:26:19.544Z,23.71
2018-04-27T07:27:19.440Z,24.58
2018-04-27T07:28:19.477Z,24.05
2018-04-27T07:29:19.520Z,23.93
2018-04-27T07:30:19.536Z,22.87
2018-04-27T07:31:19.668Z,23.40
2018-04-27T07:32:19.584Z,23.18
2018-04-27T07:33:19.608Z,23.34
2018-04-27T07:34:19.672Z,23.74
2018-04-27T07:35:19.687Z,23.95
2018-04-27T07:36:19.682Z,24.18
2018-04-27T07:37:19.820Z,24.18
2018-04-27T07:38:19.739Z,24.47
2018-04-27T07:39:19.859Z,23.03
2018-04-27T07:40:19.818Z,23.08
2018-04-27T07:41:19.826Z,23.08
2018-04-27T07:42:19.850Z,23.06
2018-04-27T07:43:19.920Z,22.93
2018-04-27T07:44:19.904Z,24.47
2018-04-27T07:45:19.967Z,25.48
2018-04-27T07:46:19.959Z,25.73
2018-04-27T07:47:19.989Z,25.81
2018-04-27T07:48:20.042Z,25.17
2018-04-27T07:49:20.076Z,25.08
2018-04-27T07:50:20.133Z,25.06
2018-04-27T07:51:20.086Z,24.63
2018-04-27T07:52:20.126Z,25.01
2018-04-27T07:53:20.142Z,25.26
2018-04-27T07:54:20.164Z,25.47
2018-04-27T07:55:20.228Z,25.83
2018-04-27T07:56:20.215Z,25.44
2018-04-27T07:57:20.254Z,25.43
2018-04-27T07:58:20.338Z,25.85
2018-04-27T07:59:20.343Z,25.40
2018-04-27T08:00:20.399Z,24.03
2018-04-27T08:01:20.353Z,23.23
2018-04-27T08:02:20.444Z,23.84
2018-04-27T08:03:20.462Z,24.85
2018-04-27T08:04:20.478Z,25.48
2018-04-27T08:05:20.466Z,25.40
2018-04-27T08:06:20.495Z,26.25
2018-04-27T08:07:20.579Z,25.90
2018-04-27T08:08:20.571Z,26.71
2018-04-27T08:09:20.581Z,24.43
2018-04-27T08:10:20.665Z,25.69
2018-04-27T08:11:20.721Z,25.70
2018-04-27T08:12:20.653Z,25.18
2018-04-27T08:13:20.788Z,24.80
2018-04-27T08:14:20.705Z,24.78
2018-04-27T08:15:20.731Z,23.84
2018-04-27T08:16:20.772Z,24.88
2018-04-27T08:17:20.786Z,26.36
2018-04-27T08:18:20.826Z,26.81
2018-04-27T08:19:20.915Z,26.45
2018-04-27T08:20:20.899Z,23.96
2018-04-27T08:21:20.890Z,22.75
2018-04-27T08:22:20.915Z,22.55
2018-04-27T08:23:20.940Z,21.24
2018-04-27T08:24:21.085Z,21.05
2018-04-27T08:25:21.004Z,21.37
2018-04-27T08:26:21.091Z,20.55
2018-04-27T08:27:21.076Z,21.35
2018-04-27T08:28:21.073Z,21.99
2018-04-27T08:29:21.102Z,22.00
2018-04-27T08:30:21.238Z,21.83
2018-04-27T08:31:21.174Z,22.26
2018-04-27T08:32:21.180Z,20.97
2018-04-27T08:33:21.190Z,20.69
2018-04-27T08:34:21.212Z,20.39
2018-04-27T08:35:21.264Z,20.99
2018-04-27T08:36:21.270Z,21.17
2018-04-27T08:37:21.290Z,20.63
2018-04-27T08:38:21.310Z,20.03
2018-04-27T08:39:21.331Z,20.39
2018-04-27T08:40:21.353Z,19.02
2018-04-27T08:41:21.388Z,18.88
2018-04-27T08:42:21.407Z,19.48
2018-04-27T08:43:21.430Z,19.99
2018-04-27T08:44:21.443Z,19.86
2018-04-27T08:45:21.471Z,19.49
2018-04-27T08:46:21.494Z,19.77
2018-04-27T08:47:21.515Z,20.11
2018-04-27T08:48:21.644Z,19.45
2018-04-27T08:49:21.594Z,18.34
2018-04-27T08:50:21.765Z,18.18
2018-04-27T08:51:21.607Z,18.04
2018-04-27T08:52:21.629Z,18.50
2018-04-27T08:53:21.670Z,18.62
2018-04-27T08:54:21.692Z,18.88
2018-04-27T08:55:21.755Z,18.52
2018-04-27T08:56:21.713Z,18.63
2018-04-27T08:57:21.745Z,19.19
2018-04-27T08:58:21.748Z,18.50
2018-04-27T08:59:21.790Z,17.74
2018-04-27T09:00:21.801Z,18.31
2018-04-27T09:01:21.829Z,18.63
2018-04-27T09:02:21.890Z,18.58
2018-04-27T09:03:22.104Z,19.09
2018-04-27T09:04:21.891Z,19.47
2018-04-27T09:05:21.912Z,19.63
2018-04-27T09:06:22.009Z,19.74
2018-04-27T09:07:21.947Z,19.84
2018-04-27T09:08:22.013Z,19.76
2018-04-27T09:09:22.010Z,20.11
2018-04-27T09:10:22.023Z,19.92
2018-04-27T09:11:22.093Z,19.89
2018-04-27T09:12:22.059Z,19.88
2018-04-27T09:13:22.108Z,19.89
2018-04-27T09:14:22.102Z,19.91
2018-04-27T09:15:22.158Z,20.18
2018-04-27T09:16:22.173Z,20.28
2018-04-27T09:17:22.167Z,19.89
2018-04-27T09:18:22.225Z,20.02
2018-04-27T09:19:22.211Z,18.56
2018-04-27T09:20:22.231Z,19.12
2018-04-27T09:21:22.262Z,18.89
2018-04-27T09:22:22.277Z,18.29
2018-04-27T09:23:22.526Z,18.47
2018-04-27T09:24:22.322Z,19.15
2018-04-27T09:25:22.484Z,19.29
2018-04-27T09:26:22.484Z,18.71
2018-04-27T09:27:22.467Z,18.74
2018-04-27T09:28:22.452Z,18.70
2018-04-27T09:29:22.475Z,19.08
2018-04-27T09:30:22.548Z,19.21
2018-04-27T09:31:22.480Z,19.54
2018-04-27T09:32:22.513Z,19.45
2018-04-27T09:33:22.618Z,19.40
2018-04-27T09:34:22.546Z,18.88
2018-04-27T09:35:22.560Z,19.67
2018-04-27T09:36:22.591Z,19.64
2018-04-27T09:37:22.608Z,19.56
2018-04-27T09:38:22.660Z,20.02
2018-04-27T09:39:22.720Z,20.22
2018-04-27T09:40:22.671Z,20.50
2018-04-27T09:41:22.703Z,20.93
2018-04-27T09:42:22.722Z,19.86
2018-04-27T09:43:22.748Z,20.18
2018-04-27T09:44:22.766Z,20.72
2018-04-27T09:45:22.791Z,19.34
2018-04-27T09:46:22.841Z,19.26
2018-04-27T09:47:22.843Z,18.73
2018-04-27T09:48:22.848Z,18.95
2018-04-27T09:49:22.939Z,18.92
2018-04-27T09:50:22.898Z,18.65
2018-04-27T09:51:22.913Z,18.62
2018-04-27T09:52:22.941Z,18.70
2018-04-27T09:53:22.959Z,18.75
2018-04-27T09:54:22.981Z,19.09
2018-04-27T09:55:23.000Z,19.69
2018-04-27T09:56:23.022Z,19.19
2018-04-27T09:57:23.091Z,19.37
2018-04-27T09:58:23.072Z,19.94
2018-04-27T09:59:23.118Z,20.43
2018-04-27T10:00:23.113Z,20.14
2018-04-27T10:01:23.146Z,20.36
2018-04-27T10:02:23.168Z,21.09
2018-04-27T10:03:23.186Z,21.07
2018-04-27T10:04:23.206Z,21.45
2018-04-27T10:05:23.220Z,21.61
2018-04-27T10:06:23.249Z,21.57
2018-04-27T10:07:23.384Z,21.69
2018-04-27T10:08:23.345Z,20.62
2018-04-27T10:09:23.309Z,19.99
2018-04-27T10:10:23.457Z,20.56
2018-04-27T10:11:23.356Z,19.91
2018-04-27T10:12:23.392Z,20.14
2018-04-27T10:13:23.412Z,20.34
2018-04-27T10:14:23.456Z,19.64
2018-04-27T10:15:23.452Z,19.07
2018-04-27T10:16:23.544Z,19.70
2018-04-27T10:17:23.515Z,20.43
2018-04-27T10:18:23.516Z,20.74
2018-04-27T10:19:23.537Z,20.92
2018-04-27T10:20:23.601Z,20.96
2018-04-27T10:21:23.633Z,21.03
2018-04-27T10:22:23.607Z,20.90
2018-04-27T10:23:23.665Z,21.03
2018-04-27T10:24:23.683Z,20.65
2018-04-27T10:25:23.667Z,20.51
2018-04-27T10:26:23.738Z,20.99
2018-04-27T10:27:23.725Z,20.14
2018-04-27T10:28:23.731Z,19.89
2018-04-27T10:29:23.798Z,19.27
2018-04-27T10:30:23.788Z,19.12
2018-04-27T10:31:23.917Z,19.04
2018-04-27T10:32:23.831Z,19.66
2018-04-27T10:33:23.849Z,20.36
2018-04-27T10:34:23.889Z,20.39
2018-04-27T10:35:23.890Z,20.99
2018-04-27T10:36:23.916Z,19.92
2018-04-27T10:37:23.945Z,19.37
2018-04-27T10:38:23.967Z,19.59
2018-04-27T10:39:23.997Z,19.30
2018-04-27T10:40:24.004Z,19.00
2018-04-27T10:41:24.061Z,19.07
2018-04-27T10:42:24.051Z,19.02
2018-04-27T10:43:24.079Z,19.00
2018-04-27T10:44:24.235Z,18.74
2018-04-27T10:45:24.119Z,18.38
2018-04-27T10:46:24.159Z,18.49
2018-04-27T10:47:24.158Z,19.07
2018-04-27T10:48:24.236Z,19.58
2018-04-27T10:49:24.199Z,19.30
2018-04-27T10:50:24.233Z,18.99
2018-04-27T10:51:24.301Z,19.79
2018-04-27T10:52:24.360Z,20.32
2018-04-27T10:53:24.338Z,19.92
2018-04-27T10:54:24.311Z,19.49
2018-04-27T10:55:24.422Z,20.18
2018-04-27T10:56:24.356Z,19.82
2018-04-27T10:57:24.504Z,19.99
2018-04-27T10:58:24.406Z,20.21
2018-04-27T10:59:24.424Z,20.56
2018-04-27T11:00:24.443Z,21.00
2018-04-27T11:01:24.574Z,20.75
2018-04-27T11:02:24.485Z,19.67
2018-04-27T11:03:24.641Z,19.85
2018-04-27T11:04:24.557Z,19.82
2018-04-27T11:05:24.594Z,19.94
2018-04-27T11:06:24.572Z,20.18
2018-04-27T11:07:24.602Z,20.18
2018-04-27T11:08:24.619Z,20.37
2018-04-27T11:09:24.672Z,20.36
2018-04-27T11:10:24.756Z,19.88
2018-04-27T11:11:24.724Z,19.55
2018-04-27T11:12:24.791Z,20.13
2018-04-27T11:13:24.741Z,19.40
2018-04-27T11:14:24.756Z,19.91
2018-04-27T11:15:24.778Z,20.56
2018-04-27T11:16:24.799Z,20.19
2018-04-27T11:17:24.829Z,20.66
2018-04-27T11:18:25.032Z,20.97
2018-04-27T11:19:24.868Z,21.32
2018-04-27T11:20:24.948Z,20.39
2018-04-27T11:21:24.968Z,19.77
2018-04-27T11:22:24.938Z,19.89
2018-04-27T11:23:24.986Z,19.84
2018-04-27T11:24:25.008Z,19.91
2018-04-27T11:25:24.996Z,20.02
2018-04-27T11:26:25.029Z,19.99
2018-04-27T11:27:25.041Z,19.63
2018-04-27T11:28:25.077Z,19.70
2018-04-27T11:29:25.107Z,20.16
2018-04-27T11:30:25.145Z,20.40
2018-04-27T11:31:25.132Z,20.11
2018-04-27T11:32:25.164Z,20.00
2018-04-27T11:33:25.180Z,20.50
2018-04-27T11:34:25.325Z,19.95
2018-04-27T11:35:25.235Z,19.71
2018-04-27T11:36:25.304Z,19.89
2018-04-27T11:37:25.263Z,19.41
2018-04-27T11:38:25.405Z,19.86
2018-04-27T11:39:25.461Z,19.92
2018-04-27T11:40:25.361Z,19.62
2018-04-27T11:41:25.365Z,19.55
2018-04-27T11:42:25.374Z,19.44
2018-04-27T11:43:25.397Z,19.48
2018-04-27T11:44:25.412Z,19.81
2018-04-27T11:45:25.446Z,19.70
2018-04-27T11:46:25.468Z,18.99
2018-04-27T11:47:25.608Z,19.12
2018-04-27T11:48:25.505Z,19.47
2018-04-27T11:49:25.522Z,19.67
2018-04-27T11:50:25.566Z,19.92
2018-04-27T11:51:25.568Z,20.41
2018-04-27T11:52:25.634Z,20.70
2018-04-27T11:53:25.638Z,20.56
2018-04-27T11:54:25.688Z,20.62
2018-04-27T11:55:25.657Z,20.74
2018-04-27T11:56:25.674Z,21.12
2018-04-27T11:57:25.698Z,21.17
2018-04-27T11:58:25.725Z,20.59
2018-04-27T11:59:25.745Z,21.33
2018-04-27T12:00:25.770Z,21.09
2018-04-27T12:01:25.895Z,21.37
2018-04-27T12:02:25.854Z,20.97
2018-04-27T12:03:25.852Z,20.51
2018-04-27T12:04:25.948Z,20.80
2018-04-27T12:05:25.923Z,20.90
2018-04-27T12:06:25.927Z,20.43
2018-04-27T12:07:26.021Z,20.95
2018-04-27T12:08:26.023Z,21.43
2018-04-27T12:09:26.109Z,21.51
2018-04-27T12:10:25.992Z,21.54
2018-04-27T12:11:26.027Z,21.77
2018-04-27T12:12:26.035Z,21.55
2018-04-27T12:13:26.065Z,21.48
2018-04-27T12:14:26.087Z,21.79
2018-04-27T12:15:26.104Z,21.82
2018-04-27T12:16:26.335Z,21.88
2018-04-27T12:17:26.171Z,21.93
2018-04-27T12:18:26.224Z,21.51
2018-04-27T12:19:26.297Z,22.13
2018-04-27T12:20:26.239Z,22.10
2018-04-27T12:21:26.240Z,21.45
2018-04-27T12:22:26.258Z,20.99
2018-04-27T12:23:26.281Z,21.72
2018-04-27T12:24:26.354Z,21.69
2018-04-27T12:25:26.353Z,21.39
2018-04-27T12:26:26.453Z,21.02
2018-04-27T12:27:26.399Z,20.32
2018-04-27T12:28:26.488Z,20.26
2018-04-27T12:29:26.427Z,20.26
2018-04-27T12:30:26.446Z,20.19
2018-04-27T12:31:26.521Z,19.89
2018-04-27T12:32:26.574Z,19.81
2018-04-27T12:33:26.639Z,19.71
2018-04-27T12:34:26.532Z,19.40
2018-04-27T12:35:26.646Z,20.16
2018-04-27T12:36:26.577Z,19.91
2018-04-27T12:37:26.599Z,19.82
2018-04-27T12:38:26.636Z,20.14
2018-04-27T12:39:26.646Z,19.91
2018-04-27T12:40:26.660Z,19.62
2018-04-27T12:41:26.688Z,19.69
2018-04-27T12:42:26.720Z,19.27
2018-04-27T12:43:26.747Z,19.29
2018-04-27T12:44:26.819Z,19.58
2018-04-27T12:45:26.775Z,19.94
2018-04-27T12:46:26.835Z,20.14
2018-04-27T12:47:26.818Z,20.96
2018-04-27T12:48:26.860Z,20.60
2018-04-27T12:49:26.865Z,20.31
2018-04-27T12:50:26.888Z,20.40
2018-04-27T12:51:26.974Z,20.59
2018-04-27T12:52:26.931Z,21.24
2018-04-27T12:53:26.953Z,20.11
2018-04-27T12:54:27.138Z,19.91
2018-04-27T12:55:27.053Z,19.30
2018-04-27T12:56:27.014Z,19.33
2018-04-27T12:57:27.074Z,19.34
2018-04-27T12:58:27.061Z,19.71
2018-04-27T12:59:27.079Z,19.49
2018-04-27T13:00:27.246Z,19.71
2018-04-27T13:01:27.131Z,19.81
2018-04-27T13:02:27.182Z,19.39